createdAt,value
2022-08-31T00:02:02.315Z,9.70
2022-08-31T00:04:30.832Z,9.65
2022-08-31T00:06:58.246Z,9.18
2022-08-31T00:09:25.455Z,10.10
2022-08-31T00:11:52.678Z,10.23
2022-08-31T00:14:19.918Z,11.90
2022-08-31T00:16:47.409Z,14.40
2022-08-31T00:19:15.194Z,12.85
2022-08-31T00:21:44.684Z,11.18
2022-08-31T00:24:13.900Z,13.38
2022-08-31T00:26:42.301Z,9.90
2022-08-31T00:29:09.655Z,11.43
2022-08-31T00:31:37.159Z,11.25
2022-08-31T00:34:04.847Z,10.73
2022-08-31T00:36:32.096Z,12.07
2022-08-31T00:38:59.333Z,10.43
2022-08-31T00:41:27.999Z,10.82
2022-08-31T00:43:57.120Z,10.50
2022-08-31T00:46:29.764Z,10.95
2022-08-31T00:48:59.895Z,13.07
2022-08-31T00:51:28.675Z,12.48
2022-08-31T00:53:55.946Z,11.43
2022-08-31T00:56:23.761Z,11.60
2022-08-31T00:58:54.926Z,12.85
2022-08-31T01:01:22.910Z,10.60
2022-08-31T01:03:50.866Z,10.43
2022-08-31T01:06:18.734Z,14.00
2022-08-31T01:08:46.643Z,11.90
2022-08-31T01:11:14.637Z,13.15
2022-08-31T01:13:42.546Z,10.73
2022-08-31T01:16:12.603Z,10.85
2022-08-31T01:18:39.866Z,11.43
2022-08-31T01:21:20.452Z,12.88
2022-08-31T01:23:47.883Z,11.77
2022-08-31T01:26:19.643Z,11.90
2022-08-31T01:28:46.782Z,13.35
2022-08-31T01:31:21.468Z,14.40
2022-08-31T01:33:48.795Z,10.38
2022-08-31T01:36:16.488Z,11.95
2022-08-31T01:38:44.144Z,14.95
2022-08-31T01:41:13.826Z,10.75
2022-08-31T01:43:41.730Z,11.10
2022-08-31T01:46:10.047Z,13.13
2022-08-31T01:48:41.426Z,15.38
2022-08-31T01:51:08.778Z,12.57
2022-08-31T01:53:39.528Z,12.07
2022-08-31T01:56:13.114Z,14.35
2022-08-31T01:58:40.258Z,12.27
2022-08-31T02:01:10.694Z,11.38
2022-08-31T02:03:57.121Z,13.15
2022-08-31T02:06:24.516Z,13.55
2022-08-31T02:08:51.758Z,10.60
2022-08-31T02:11:18.990Z,13.50
2022-08-31T02:13:46.627Z,14.38
2022-08-31T02:16:13.900Z,14.73
2022-08-31T02:18:41.151Z,14.27
2022-08-31T02:21:08.282Z,13.55
2022-08-31T02:23:35.465Z,11.40
2022-08-31T02:26:02.616Z,12.77
2022-08-31T02:28:29.841Z,13.95
2022-08-31T02:30:57.051Z,12.25
2022-08-31T02:33:25.079Z,12.50
2022-08-31T02:35:53.662Z,11.68
2022-08-31T02:38:22.933Z,13.32
2022-08-31T02:40:51.459Z,13.35
2022-08-31T02:43:24.772Z,11.75
2022-08-31T02:45:53.464Z,12.63
2022-08-31T02:48:21.591Z,15.75
2022-08-31T02:50:50.112Z,11.68
2022-08-31T02:53:18.130Z,13.82
2022-08-31T02:55:45.622Z,12.88
2022-08-31T02:58:13.141Z,13.02
2022-08-31T03:00:40.954Z,12.60
2022-08-31T03:03:08.183Z,11.55
2022-08-31T03:05:35.479Z,11.77
2022-08-31T03:08:02.709Z,11.90
2022-08-31T03:10:29.874Z,14.40
2022-08-31T03:12:57.033Z,13.00
2022-08-31T03:15:24.989Z,11.38
2022-08-31T03:17:52.515Z,14.30
2022-08-31T03:20:20.583Z,13.02
2022-08-31T03:22:48.138Z,15.80
2022-08-31T03:25:17.598Z,12.55
2022-08-31T03:27:45.854Z,12.07
2022-08-31T03:30:14.874Z,12.55
2022-08-31T03:32:42.610Z,11.60
2022-08-31T03:35:10.111Z,10.13
2022-08-31T03:37:37.265Z,11.63
2022-08-31T03:40:04.874Z,11.52
2022-08-31T03:42:32.228Z,14.82
2022-08-31T03:44:59.450Z,15.63
2022-08-31T03:47:28.295Z,12.25
2022-08-31T03:49:55.775Z,13.90
2022-08-31T03:52:23.034Z,12.55
2022-08-31T03:54:50.243Z,11.63
2022-08-31T03:57:17.395Z,11.82
2022-08-31T03:59:44.534Z,13.15
2022-08-31T04:02:11.768Z,13.43
2022-08-31T04:04:38.990Z,14.65
2022-08-31T04:07:06.186Z,11.32
2022-08-31T04:09:33.582Z,12.68
2022-08-31T04:12:01.909Z,14.68
2022-08-31T04:14:29.123Z,11.65
2022-08-31T04:16:56.280Z,14.27
2022-08-31T04:19:24.866Z,12.13
2022-08-31T04:21:52.144Z,15.98
2022-08-31T04:24:19.440Z,11.23
2022-08-31T04:26:46.656Z,12.07
2022-08-31T04:29:13.915Z,11.65
2022-08-31T04:31:41.266Z,12.73
2022-08-31T04:34:08.534Z,11.55
2022-08-31T04:36:35.760Z,12.93
2022-08-31T04:39:04.323Z,12.57
2022-08-31T04:41:32.380Z,11.77
2022-08-31T04:44:00.499Z,10.70
2022-08-31T04:46:28.596Z,12.52
2022-08-31T04:48:56.343Z,12.45
2022-08-31T04:51:27.743Z,12.43
2022-08-31T04:53:55.483Z,13.32
2022-08-31T04:56:25.042Z,12.38
2022-08-31T04:58:53.476Z,13.77
2022-08-31T05:01:22.539Z,13.57
2022-08-31T05:03:53.183Z,14.60
2022-08-31T05:06:21.641Z,13.77
2022-08-31T05:08:48.886Z,17.48
2022-08-31T05:11:20.770Z,13.23
2022-08-31T05:13:52.678Z,13.18
2022-08-31T05:16:20.271Z,19.10
2022-08-31T05:18:48.622Z,15.07
2022-08-31T05:21:28.492Z,16.50
2022-08-31T05:23:59.711Z,13.43
2022-08-31T05:26:28.691Z,12.80
2022-08-31T05:28:56.170Z,15.55
2022-08-31T05:31:23.776Z,13.05
2022-08-31T05:33:51.459Z,15.55
2022-08-31T05:36:18.694Z,14.15
2022-08-31T05:38:45.912Z,12.50
2022-08-31T05:41:13.122Z,12.52
2022-08-31T05:43:40.889Z,15.48
2022-08-31T05:46:10.416Z,13.57
2022-08-31T05:48:38.356Z,15.13
2022-08-31T05:51:06.972Z,14.00
2022-08-31T05:53:34.592Z,13.10
2022-08-31T05:56:06.794Z,13.80
2022-08-31T05:58:34.531Z,16.05
2022-08-31T06:01:01.710Z,16.13
2022-08-31T06:03:29.265Z,19.27
2022-08-31T06:05:56.570Z,17.08
2022-08-31T06:08:27.308Z,12.80
2022-08-31T06:11:00.688Z,17.65
2022-08-31T06:13:27.896Z,15.18
2022-08-31T06:15:55.930Z,13.73
2022-08-31T06:18:23.078Z,14.30
2022-08-31T06:20:50.279Z,13.55
2022-08-31T06:23:17.949Z,15.43
2022-08-31T06:25:45.200Z,17.40
2022-08-31T06:28:14.320Z,15.48
2022-08-31T06:30:54.841Z,14.18
2022-08-31T06:33:23.016Z,14.20
2022-08-31T06:35:50.209Z,12.68
2022-08-31T06:38:17.434Z,14.73
2022-08-31T06:40:44.651Z,13.85
2022-08-31T06:43:11.972Z,13.50
2022-08-31T06:45:39.230Z,12.02
2022-08-31T06:48:07.444Z,13.43
2022-08-31T06:50:34.662Z,15.02
2022-08-31T06:53:01.882Z,10.77
2022-08-31T06:55:29.084Z,13.25
2022-08-31T06:57:56.246Z,13.30
2022-08-31T07:00:23.432Z,13.55
2022-08-31T07:02:52.974Z,11.65
2022-08-31T07:05:24.966Z,14.80
2022-08-31T07:07:52.391Z,13.02
2022-08-31T07:10:19.638Z,12.38
2022-08-31T07:12:46.866Z,11.80
2022-08-31T07:15:14.021Z,19.10
2022-08-31T07:17:41.219Z,19.83
2022-08-31T07:20:08.704Z,14.00
2022-08-31T07:22:35.856Z,13.15
2022-08-31T07:25:03.042Z,15.77
2022-08-31T07:27:30.471Z,11.77
2022-08-31T07:30:00.265Z,10.95
2022-08-31T07:32:27.550Z,18.77
2022-08-31T07:34:59.794Z,18.42
2022-08-31T07:37:45.926Z,15.77
2022-08-31T07:40:32.096Z,14.70
2022-08-31T07:43:04.727Z,14.75
2022-08-31T07:45:35.799Z,18.10
2022-08-31T07:48:05.105Z,13.07
2022-08-31T07:50:32.273Z,13.38
2022-08-31T07:53:00.303Z,15.77
2022-08-31T07:55:29.237Z,14.02
2022-08-31T07:57:56.938Z,13.70
2022-08-31T08:00:24.285Z,13.25
2022-08-31T08:02:57.321Z,14.82
2022-08-31T08:05:28.761Z,13.57
2022-08-31T08:07:58.384Z,14.52
2022-08-31T08:10:30.068Z,13.85
2022-08-31T08:13:05.201Z,15.60
2022-08-31T08:15:35.473Z,12.90
2022-08-31T08:18:03.421Z,11.68
2022-08-31T08:20:37.975Z,15.98
2022-08-31T08:23:13.534Z,11.10
2022-08-31T08:25:43.241Z,12.70
2022-08-31T08:28:35.884Z,14.93
2022-08-31T08:31:01.498Z,11.60
2022-08-31T08:33:29.622Z,12.60
2022-08-31T08:35:57.917Z,11.32
2022-08-31T08:38:25.974Z,14.88
2022-08-31T08:40:54.408Z,11.68
2022-08-31T08:43:26.519Z,13.75
2022-08-31T08:45:56.870Z,12.52
2022-08-31T08:48:26.911Z,13.98
2022-08-31T08:50:54.532Z,15.10
2022-08-31T08:53:26.992Z,10.48
2022-08-31T08:55:54.251Z,10.00
2022-08-31T08:58:22.569Z,10.45
2022-08-31T09:00:51.874Z,12.82
2022-08-31T09:03:33.188Z,10.57
2022-08-31T09:06:12.021Z,11.63
2022-08-31T09:08:42.480Z,11.45
2022-08-31T09:11:09.786Z,11.75
2022-08-31T09:13:44.373Z,15.02
2022-08-31T09:16:28.771Z,13.80
2022-08-31T09:18:58.160Z,11.50
2022-08-31T09:21:28.951Z,12.77
2022-08-31T09:24:01.781Z,13.43
2022-08-31T09:26:32.801Z,11.88
2022-08-31T09:29:03.937Z,11.57
2022-08-31T09:31:37.780Z,13.98
2022-08-31T09:34:25.359Z,12.87
2022-08-31T09:36:55.207Z,12.38
2022-08-31T09:39:33.094Z,12.93
2022-08-31T09:42:14.479Z,12.38
2022-08-31T09:44:42.663Z,14.13
2022-08-31T09:47:38.157Z,14.90
2022-08-31T09:50:09.336Z,14.90
2022-08-31T09:52:55.599Z,11.55
2022-08-31T09:55:28.059Z,14.45
2022-08-31T09:58:03.163Z,13.73
2022-08-31T10:00:38.954Z,10.48
2022-08-31T10:03:13.488Z,13.18
2022-08-31T10:05:43.548Z,12.30
2022-08-31T10:08:33.468Z,10.60
2022-08-31T10:11:06.443Z,12.93
2022-08-31T10:13:42.906Z,13.10
2022-08-31T10:16:17.138Z,13.68
2022-08-31T10:18:56.059Z,11.15
2022-08-31T10:21:31.450Z,9.60
2022-08-31T10:24:20.833Z,10.10
2022-08-31T10:26:50.181Z,11.00
2022-08-31T10:29:23.421Z,12.68
2022-08-31T10:31:52.829Z,10.68
2022-08-31T10:34:51.451Z,12.82
2022-08-31T10:37:31.632Z,11.93
2022-08-31T10:40:01.283Z,9.63
2022-08-31T10:42:30.169Z,12.52
2022-08-31T10:45:00.130Z,12.93
2022-08-31T10:47:33.979Z,10.52
2022-08-31T10:50:03.569Z,15.20
2022-08-31T10:52:33.923Z,12.43
2022-08-31T10:55:08.031Z,12.82
2022-08-31T10:57:41.290Z,12.97
2022-08-31T11:00:36.383Z,13.02
2022-08-31T11:03:19.610Z,12.50
2022-08-31T11:05:59.204Z,11.32
2022-08-31T11:08:52.578Z,11.20
2022-08-31T11:11:35.888Z,10.77
2022-08-31T11:14:27.070Z,14.30
2022-08-31T11:16:57.057Z,12.43
2022-08-31T11:19:30.229Z,14.15
2022-08-31T11:22:00.344Z,16.63
2022-08-31T11:24:34.888Z,16.08
2022-08-31T11:27:11.859Z,12.73
2022-08-31T11:30:00.377Z,18.70
2022-08-31T11:32:34.578Z,14.65
2022-08-31T11:35:08.243Z,16.15
2022-08-31T11:37:54.521Z,15.25
2022-08-31T11:40:42.077Z,14.52
2022-08-31T11:43:14.529Z,13.63
2022-08-31T11:45:42.264Z,12.05
2022-08-31T11:48:29.898Z,13.27
2022-08-31T11:50:57.041Z,15.32
2022-08-31T11:53:31.848Z,14.68
2022-08-31T11:56:00.453Z,14.52
2022-08-31T11:58:39.840Z,14.48
2022-08-31T12:01:21.004Z,12.70
2022-08-31T12:04:03.318Z,10.65
2022-08-31T12:06:37.948Z,14.85
2022-08-31T12:09:23.960Z,9.77
2022-08-31T12:11:56.309Z,11.93
2022-08-31T12:14:42.271Z,11.40
2022-08-31T12:17:13.643Z,9.88
2022-08-31T12:20:02.685Z,11.63
2022-08-31T12:22:51.454Z,9.23
2022-08-31T12:25:20.370Z,8.45
2022-08-31T12:27:59.954Z,8.60
2022-08-31T12:33:16.550Z,11.40
2022-08-31T12:35:46.279Z,10.52
2022-08-31T12:38:24.045Z,10.02
2022-08-31T12:40:54.491Z,8.07
2022-08-31T12:43:24.976Z,8.65
2022-08-31T12:45:55.255Z,11.38
2022-08-31T12:48:22.395Z,10.93
2022-08-31T12:51:05.227Z,8.80
2022-08-31T12:53:50.841Z,8.88
2022-08-31T12:56:18.074Z,10.75
2022-08-31T12:58:52.868Z,9.90
2022-08-31T13:01:24.213Z,10.07
2022-08-31T13:03:54.467Z,10.38
2022-08-31T13:06:32.184Z,12.20
2022-08-31T13:09:00.268Z,10.20
2022-08-31T13:11:33.131Z,9.43
2022-08-31T13:14:13.480Z,10.80
2022-08-31T13:16:43.294Z,12.95
2022-08-31T13:19:16.890Z,9.45
2022-08-31T13:21:49.241Z,9.57
2022-08-31T13:24:16.399Z,8.32
2022-08-31T13:26:45.495Z,10.55
2022-08-31T13:29:17.586Z,9.18
2022-08-31T13:31:51.608Z,11.93
2022-08-31T13:34:20.371Z,10.23
2022-08-31T13:36:51.791Z,11.35
2022-08-31T13:39:28.147Z,9.30
2022-08-31T13:41:56.087Z,9.40
2022-08-31T13:44:27.356Z,9.68
2022-08-31T13:47:02.834Z,8.88
2022-08-31T13:49:41.387Z,11.30
2022-08-31T13:52:15.558Z,9.77
2022-08-31T13:54:43.123Z,11.13
2022-08-31T13:57:16.699Z,11.93
2022-08-31T13:59:44.024Z,10.38
2022-08-31T14:02:19.500Z,11.68
2022-08-31T14:04:59.759Z,9.60
2022-08-31T14:07:39.406Z,12.07
2022-08-31T14:10:15.530Z,11.35
2022-08-31T14:12:46.014Z,9.10
2022-08-31T14:15:17.995Z,11.30
2022-08-31T14:20:53.383Z,10.18
2022-08-31T14:23:28.694Z,11.73
2022-08-31T14:25:57.631Z,9.57
2022-08-31T14:28:36.216Z,11.93
2022-08-31T14:31:24.519Z,11.93
2022-08-31T14:34:08.627Z,10.63
2022-08-31T14:36:43.625Z,9.20
2022-08-31T14:39:11.254Z,11.38
2022-08-31T14:41:38.443Z,11.43
2022-08-31T14:44:11.135Z,9.23
2022-08-31T14:46:39.513Z,8.02
2022-08-31T14:49:07.291Z,12.32
2022-08-31T14:51:35.590Z,11.10
2022-08-31T14:54:02.806Z,11.50
2022-08-31T14:56:33.084Z,7.35
2022-08-31T14:59:02.959Z,10.63
2022-08-31T15:01:35.532Z,9.07
2022-08-31T15:04:04.031Z,10.70
2022-08-31T15:06:32.169Z,10.77
2022-08-31T15:09:04.617Z,9.30
2022-08-31T15:11:35.347Z,11.27
2022-08-31T15:14:03.371Z,10.98
2022-08-31T15:16:30.844Z,11.90
2022-08-31T15:18:58.924Z,11.40
2022-08-31T15:21:28.106Z,10.07
2022-08-31T15:23:55.401Z,12.43
2022-08-31T15:26:23.283Z,11.77
2022-08-31T15:28:52.381Z,9.73
2022-08-31T15:31:24.306Z,10.55
2022-08-31T15:33:55.230Z,11.05
2022-08-31T15:36:25.700Z,11.93
2022-08-31T15:38:57.225Z,14.43
2022-08-31T15:41:27.355Z,14.15
2022-08-31T15:43:54.560Z,12.80
2022-08-31T15:46:40.871Z,10.38
2022-08-31T15:49:09.865Z,14.32
2022-08-31T15:51:46.794Z,12.43
2022-08-31T15:54:22.246Z,12.48
2022-08-31T15:56:50.340Z,11.57
2022-08-31T15:59:17.505Z,10.95
2022-08-31T16:01:44.762Z,14.43
2022-08-31T16:04:19.157Z,14.50
2022-08-31T16:06:46.716Z,12.55
2022-08-31T16:09:13.903Z,10.95
2022-08-31T16:11:41.702Z,10.27
2022-08-31T16:14:15.256Z,12.38
2022-08-31T16:16:46.484Z,12.13
2022-08-31T16:19:28.036Z,16.58
2022-08-31T16:22:01.963Z,12.25
2022-08-31T16:24:32.979Z,12.30
2022-08-31T16:27:00.510Z,12.90
2022-08-31T16:29:29.671Z,9.55
2022-08-31T16:31:57.022Z,8.15
2022-08-31T16:34:25.012Z,8.88
2022-08-31T16:36:53.031Z,8.65
2022-08-31T16:39:20.543Z,7.05
2022-08-31T16:41:48.109Z,8.25
2022-08-31T16:44:19.915Z,8.18
2022-08-31T16:46:47.536Z,10.68
2022-08-31T16:49:33.547Z,9.20
2022-08-31T16:52:03.420Z,6.38
2022-08-31T16:54:31.384Z,8.10
2022-08-31T16:56:58.907Z,6.70
2022-08-31T16:59:27.165Z,7.65
2022-08-31T17:01:55.135Z,9.30
2022-08-31T17:04:50.415Z,8.68
2022-08-31T17:07:13.877Z,8.15
2022-08-31T17:09:41.466Z,10.25
2022-08-31T17:12:13.082Z,10.00
2022-08-31T17:14:46.648Z,8.93
2022-08-31T17:17:15.570Z,7.00
2022-08-31T17:19:44.201Z,8.82
2022-08-31T17:22:16.986Z,7.97
2022-08-31T17:24:46.994Z,9.15
2022-08-31T17:27:15.806Z,8.45
2022-08-31T17:29:45.735Z,8.43
2022-08-31T17:32:13.974Z,6.88
2022-08-31T17:34:41.828Z,7.32
2022-08-31T17:37:14.386Z,7.72
2022-08-31T17:39:42.702Z,8.27
2022-08-31T17:42:10.274Z,7.05
2022-08-31T17:44:38.826Z,8.63
2022-08-31T17:47:08.225Z,7.85
2022-08-31T17:49:37.896Z,8.73
2022-08-31T17:52:08.418Z,8.07
2022-08-31T17:54:40.118Z,7.38
2022-08-31T17:57:09.141Z,7.57
2022-08-31T17:59:39.175Z,7.10
2022-08-31T18:02:08.859Z,7.50
2022-08-31T18:04:36.529Z,8.30
2022-08-31T18:07:04.406Z,10.18
2022-08-31T18:09:33.199Z,9.73
2022-08-31T18:12:00.891Z,9.57
2022-08-31T18:14:28.944Z,8.35
2022-08-31T18:16:57.320Z,8.63
2022-08-31T18:19:27.567Z,7.53
2022-08-31T18:21:56.177Z,8.45
2022-08-31T18:24:23.380Z,8.95
2022-08-31T18:26:51.300Z,8.07
2022-08-31T18:29:23.907Z,9.88
2022-08-31T18:31:53.955Z,8.57
2022-08-31T18:34:23.696Z,7.82
2022-08-31T18:36:51.916Z,13.05
2022-08-31T18:39:40.824Z,10.55
2022-08-31T18:42:27.269Z,9.90
2022-08-31T18:45:12.993Z,9.32
2022-08-31T18:47:40.229Z,10.65
2022-08-31T18:50:07.821Z,9.75
2022-08-31T18:52:40.229Z,11.68
2022-08-31T18:55:11.466Z,8.70
2022-08-31T18:57:46.382Z,9.02
2022-08-31T19:00:17.652Z,9.75
2022-08-31T19:02:45.090Z,9.98
2022-08-31T19:05:13.216Z,11.77
2022-08-31T19:07:41.272Z,11.50
2022-08-31T19:10:12.938Z,11.02
2022-08-31T19:12:42.560Z,13.38
2022-08-31T19:15:11.037Z,8.90
2022-08-31T19:17:40.035Z,11.52
2022-08-31T19:20:10.266Z,10.05
2022-08-31T19:22:37.751Z,14.00
2022-08-31T19:25:07.621Z,17.73
2022-08-31T19:27:35.232Z,12.60
2022-08-31T19:30:05.865Z,13.10
2022-08-31T19:32:33.889Z,12.73
2022-08-31T19:35:01.087Z,14.00
2022-08-31T19:37:28.239Z,13.48
2022-08-31T19:39:55.365Z,13.75
2022-08-31T19:42:40.171Z,13.52
2022-08-31T19:45:24.817Z,13.27
2022-08-31T19:47:52.620Z,13.32
2022-08-31T19:50:19.880Z,12.88
2022-08-31T19:52:47.387Z,14.98
2022-08-31T19:55:14.649Z,17.08
2022-08-31T19:57:43.316Z,14.13
2022-08-31T20:00:11.818Z,13.77
2022-08-31T20:02:42.170Z,14.23
2022-08-31T20:05:09.691Z,13.98
2022-08-31T20:07:36.951Z,13.13
2022-08-31T20:10:04.743Z,14.65
2022-08-31T20:12:32.282Z,13.05
2022-08-31T20:14:59.505Z,14.30
2022-08-31T20:17:30.083Z,12.80
2022-08-31T20:19:59.928Z,12.90
2022-08-31T20:22:28.107Z,15.55
2022-08-31T20:25:00.716Z,14.25
2022-08-31T20:27:28.186Z,15.95
2022-08-31T20:29:56.843Z,15.10
2022-08-31T20:32:25.800Z,17.55
2022-08-31T20:34:55.981Z,16.55
2022-08-31T20:37:24.594Z,16.42
2022-08-31T20:39:52.045Z,19.35
2022-08-31T20:42:21.929Z,17.63
2022-08-31T20:44:49.189Z,19.83
2022-08-31T20:47:34.972Z,18.45
2022-08-31T20:50:06.498Z,16.85
2022-08-31T20:52:35.000Z,16.98
2022-08-31T20:55:03.042Z,17.48
2022-08-31T20:57:31.724Z,18.25
2022-08-31T21:00:00.534Z,18.70
2022-08-31T21:02:28.455Z,17.25
2022-08-31T21:05:10.366Z,20.23
2022-08-31T21:07:42.726Z,19.30
2022-08-31T21:10:10.874Z,18.25
2022-08-31T21:12:38.037Z,18.95
2022-08-31T21:15:12.335Z,20.63
2022-08-31T21:17:40.624Z,19.07
2022-08-31T21:20:08.284Z,18.08
2022-08-31T21:22:35.444Z,17.90
2022-08-31T21:25:03.743Z,18.83
2022-08-31T21:27:32.065Z,17.05
2022-08-31T21:29:59.667Z,15.88
2022-08-31T21:32:26.792Z,19.42
2022-08-31T21:34:57.162Z,17.63
2022-08-31T21:37:24.347Z,16.95
2022-08-31T21:39:55.732Z,16.30
2022-08-31T21:42:25.163Z,15.55
2022-08-31T21:44:52.427Z,15.68
2022-08-31T21:47:19.598Z,16.30
2022-08-31T21:49:49.746Z,14.23
2022-08-31T21:52:17.032Z,14.38
2022-08-31T21:54:46.084Z,18.20
2022-08-31T21:57:15.258Z,17.33
2022-08-31T21:59:42.503Z,15.93
2022-08-31T22:02:11.196Z,15.52
2022-08-31T22:04:40.550Z,16.10
2022-08-31T22:07:08.254Z,14.85
2022-08-31T22:09:36.348Z,14.32
2022-08-31T22:12:06.530Z,14.13
2022-08-31T22:14:36.090Z,16.83
2022-08-31T22:17:05.634Z,13.50
2022-08-31T22:19:37.647Z,15.25
2022-08-31T22:22:09.274Z,14.70
2022-08-31T22:24:39.770Z,14.93
2022-08-31T22:27:09.163Z,15.80
2022-08-31T22:29:37.946Z,13.45
2022-08-31T22:32:12.667Z,16.08
2022-08-31T22:34:40.315Z,16.95
2022-08-31T22:37:08.991Z,16.65
2022-08-31T22:39:36.424Z,16.25
2022-08-31T22:42:04.572Z,17.50
2022-08-31T22:44:34.410Z,16.98
2022-08-31T22:47:02.123Z,13.57
2022-08-31T22:49:29.324Z,14.98
2022-08-31T22:51:56.939Z,17.10
2022-08-31T22:54:24.430Z,14.20
2022-08-31T22:56:51.720Z,14.57
2022-08-31T22:59:24.653Z,15.88
2022-08-31T23:01:54.843Z,12.18
2022-08-31T23:04:23.352Z,17.55
2022-08-31T23:06:51.718Z,17.08
2022-08-31T23:09:27.141Z,15.65
2022-08-31T23:11:55.126Z,13.43
2022-08-31T23:14:22.956Z,14.93
2022-08-31T23:16:58.681Z,14.40
2022-08-31T23:19:30.351Z,19.60
2022-08-31T23:21:57.878Z,19.25
2022-08-31T23:24:26.735Z,19.48
2022-08-31T23:26:54.247Z,17.85
2022-08-31T23:29:21.819Z,20.02
2022-08-31T23:31:48.978Z,19.35
2022-08-31T23:34:16.844Z,21.35
2022-08-31T23:36:47.662Z,19.25
2022-08-31T23:39:15.614Z,23.45
2022-08-31T23:41:44.931Z,23.95
2022-08-31T23:44:13.011Z,23.08
2022-08-31T23:46:40.970Z,26.52
2022-08-31T23:49:09.163Z,24.70
2022-08-31T23:51:36.299Z,25.35
2022-08-31T23:54:06.478Z,26.23
2022-08-31T23:56:36.122Z,25.00
2022-08-31T23:59:08.250Z,26.02
